createdAt,value
2018-10-19T00:00:29.624Z,1.30
2018-10-19T00:02:55.635Z,1.27
2018-10-19T00:05:21.629Z,1.40
2018-10-19T00:07:47.592Z,1.60
2018-10-19T00:10:13.559Z,1.30
2018-10-19T00:12:39.574Z,1.60
2018-10-19T00:15:05.532Z,1.73
2018-10-19T00:17:31.481Z,1.70
2018-10-19T00:19:57.453Z,1.33
2018-10-19T00:22:24.124Z,1.73
2018-10-19T00:24:50.115Z,1.83
2018-10-19T00:27:16.842Z,1.67
2018-10-19T00:29:42.792Z,1.67
2018-10-19T00:32:08.738Z,1.47
2018-10-19T00:34:34.713Z,2.00
2018-10-19T00:37:00.677Z,1.73
2018-10-19T00:39:26.700Z,2.10
2018-10-19T00:41:52.635Z,1.77
2018-10-19T00:44:18.578Z,1.87
2018-10-19T00:46:44.560Z,1.30
2018-10-19T00:49:10.519Z,1.50
2018-10-19T00:51:36.493Z,1.70
2018-10-19T00:54:02.453Z,1.63
2018-10-19T00:56:28.436Z,1.60
2018-10-19T00:58:54.386Z,1.93
2018-10-19T01:01:20.375Z,2.00
2018-10-19T01:03:46.347Z,1.77
2018-10-19T01:06:12.336Z,1.53
2018-10-19T01:08:38.294Z,1.60
2018-10-19T01:11:04.311Z,1.80
2018-10-19T01:13:30.231Z,1.80
2018-10-19T01:15:56.182Z,2.00
2018-10-19T01:18:22.893Z,1.90
2018-10-19T01:20:48.841Z,1.60
2018-10-19T01:23:15.640Z,1.57
2018-10-19T01:25:42.298Z,1.60
2018-10-19T01:28:08.297Z,1.93
2018-10-19T01:30:34.244Z,1.47
2018-10-19T01:33:00.239Z,1.87
2018-10-19T01:35:26.249Z,1.70
2018-10-19T01:37:52.284Z,2.10
2018-10-19T01:40:18.246Z,1.90
2018-10-19T01:42:44.215Z,1.60
2018-10-19T01:45:10.193Z,1.73
2018-10-19T01:47:36.162Z,1.93
2018-10-19T01:50:02.090Z,1.90
2018-10-19T01:52:28.072Z,2.00
2018-10-19T01:54:54.072Z,1.70
2018-10-19T01:57:20.060Z,1.10
2018-10-19T01:59:45.998Z,2.20
2018-10-19T02:02:11.962Z,1.67
2018-10-19T02:04:37.965Z,1.70
2018-10-19T02:07:03.913Z,1.57
2018-10-19T02:09:30.646Z,1.60
2018-10-19T02:11:56.602Z,1.60
2018-10-19T02:14:22.584Z,1.53
2018-10-19T02:16:49.309Z,1.50
2018-10-19T02:19:15.320Z,1.40
2018-10-19T02:21:41.267Z,1.83
2018-10-19T02:24:07.240Z,1.70
2018-10-19T02:26:33.227Z,1.67
2018-10-19T02:29:00.015Z,1.20
2018-10-19T02:31:26.670Z,1.30
2018-10-19T02:33:52.675Z,1.40
2018-10-19T02:36:18.626Z,1.70
2018-10-19T02:38:44.565Z,1.50
2018-10-19T02:41:10.617Z,1.37
2018-10-19T02:43:36.526Z,1.23
2018-10-19T02:46:02.495Z,1.40
2018-10-19T02:48:28.438Z,1.43
2018-10-19T02:50:54.436Z,1.57
2018-10-19T02:53:20.408Z,1.33
2018-10-19T02:55:46.378Z,1.73
2018-10-19T02:58:12.337Z,1.50
2018-10-19T03:00:38.311Z,1.47
2018-10-19T03:03:04.313Z,1.23
2018-10-19T03:05:30.243Z,1.60
2018-10-19T03:07:56.239Z,1.30
2018-10-19T03:10:22.190Z,1.93
2018-10-19T03:12:48.900Z,1.00
2018-10-19T03:15:14.926Z,1.07
2018-10-19T03:17:40.852Z,1.23
2018-10-19T03:20:07.565Z,1.30
2018-10-19T03:22:33.557Z,1.40
2018-10-19T03:24:59.545Z,1.30
2018-10-19T03:27:25.515Z,0.90
2018-10-19T03:29:51.469Z,1.03
2018-10-19T03:32:17.463Z,1.40
2018-10-19T03:34:43.435Z,1.20
2018-10-19T03:37:10.144Z,1.53
2018-10-19T03:39:36.125Z,1.73
2018-10-19T03:42:02.084Z,1.50
2018-10-19T03:44:28.086Z,1.03
2018-10-19T03:46:54.072Z,1.30
2018-10-19T03:49:20.042Z,1.23
2018-10-19T03:51:46.729Z,1.70
2018-10-19T03:54:13.466Z,1.40
2018-10-19T03:56:39.408Z,1.10
2018-10-19T03:59:06.215Z,1.30
2018-10-19T04:01:32.836Z,1.47
2018-10-19T04:03:58.792Z,1.70
2018-10-19T04:06:24.743Z,1.70
2018-10-19T04:08:50.753Z,1.67
2018-10-19T04:11:16.822Z,1.20
2018-10-19T04:13:43.471Z,1.20
2018-10-19T04:16:09.471Z,1.50
2018-10-19T04:18:36.147Z,1.67
2018-10-19T04:21:02.134Z,1.30
2018-10-19T04:23:28.112Z,1.60
2018-10-19T04:25:54.853Z,1.47
2018-10-19T04:28:21.555Z,1.47
2018-10-19T04:30:47.529Z,1.73
2018-10-19T04:33:13.556Z,1.43
2018-10-19T04:35:39.510Z,1.50
2018-10-19T04:38:05.474Z,1.87
2018-10-19T04:40:31.431Z,1.50
2018-10-19T04:42:57.420Z,1.30
2018-10-19T04:45:24.111Z,1.50
2018-10-19T04:47:50.174Z,1.20
2018-10-19T04:50:16.790Z,1.23
2018-10-19T04:52:42.791Z,1.73
2018-10-19T04:55:08.765Z,1.70
2018-10-19T04:57:34.740Z,1.27
2018-10-19T05:00:01.441Z,1.50
2018-10-19T05:02:28.143Z,1.40
2018-10-19T05:04:54.125Z,1.27
2018-10-19T05:07:20.105Z,1.40
2018-10-19T05:09:46.070Z,1.37
2018-10-19T05:12:12.011Z,1.30
2018-10-19T05:14:37.994Z,1.20
2018-10-19T05:17:04.748Z,1.60
2018-10-19T05:19:31.478Z,1.23
2018-10-19T05:21:57.458Z,2.17
2018-10-19T05:24:23.446Z,1.23
2018-10-19T05:26:49.400Z,1.60
2018-10-19T05:29:15.438Z,1.90
2018-10-19T05:31:41.351Z,1.80
2018-10-19T05:34:07.329Z,1.60
2018-10-19T05:36:33.289Z,1.67
2018-10-19T05:38:59.259Z,1.70
2018-10-19T05:41:25.229Z,1.47
2018-10-19T05:43:51.213Z,1.50
2018-10-19T05:46:17.917Z,1.60
2018-10-19T05:48:43.882Z,1.57
2018-10-19T05:51:10.585Z,1.50
2018-10-19T05:53:37.281Z,1.93
2018-10-19T05:56:03.278Z,1.47
2018-10-19T05:58:29.228Z,1.50
2018-10-19T06:00:55.200Z,1.40
2018-10-19T06:03:21.137Z,1.30
2018-10-19T06:05:47.888Z,2.07
2018-10-19T06:08:13.929Z,1.40
2018-10-19T06:10:40.614Z,1.73
2018-10-19T06:13:06.572Z,1.70
2018-10-19T06:15:32.546Z,1.63
2018-10-19T06:17:58.485Z,1.93
2018-10-19T06:20:24.469Z,1.43
2018-10-19T06:22:50.455Z,2.03
2018-10-19T06:25:16.440Z,1.40
2018-10-19T06:27:42.391Z,1.77
2018-10-19T06:30:09.120Z,1.60
2018-10-19T06:32:35.055Z,2.00
2018-10-19T06:35:01.836Z,1.87
2018-10-19T06:37:27.780Z,2.00
2018-10-19T06:39:53.748Z,2.07
2018-10-19T06:42:20.468Z,1.70
2018-10-19T06:44:46.432Z,2.17
2018-10-19T06:47:12.521Z,1.90
2018-10-19T06:49:38.396Z,2.10
2018-10-19T06:52:04.365Z,2.23
2018-10-19T06:54:31.054Z,1.80
2018-10-19T06:56:57.023Z,2.10
2018-10-19T06:59:23.816Z,2.10
2018-10-19T07:01:49.705Z,2.50
2018-10-19T07:04:16.417Z,2.07
2018-10-19T07:06:42.351Z,2.47
2018-10-19T07:09:08.341Z,1.90
2018-10-19T07:11:34.308Z,1.77
2018-10-19T07:14:01.055Z,2.07
2018-10-19T07:16:27.753Z,2.00
2018-10-19T07:18:53.732Z,2.03
2018-10-19T07:21:19.734Z,1.90
2018-10-19T07:23:46.448Z,1.93
2018-10-19T07:26:12.475Z,2.03
2018-10-19T07:28:38.393Z,1.80
2018-10-19T07:31:04.345Z,1.70
2018-10-19T07:33:31.062Z,1.93
2018-10-19T07:35:57.758Z,1.40
2018-10-19T07:38:23.750Z,1.50
2018-10-19T07:40:49.709Z,1.47
2018-10-19T07:43:15.696Z,1.60
2018-10-19T07:45:42.386Z,1.20
2018-10-19T07:48:08.496Z,1.37
2018-10-19T07:50:34.328Z,1.97
2018-10-19T07:53:00.357Z,1.60
2018-10-19T07:55:26.303Z,1.33
2018-10-19T07:57:53.013Z,1.70
2018-10-19T08:00:19.011Z,1.83
2018-10-19T08:02:44.937Z,2.00
2018-10-19T08:05:10.950Z,1.80
2018-10-19T08:07:37.599Z,1.80
2018-10-19T08:10:03.567Z,1.93
2018-10-19T08:12:29.522Z,1.50
2018-10-19T08:14:55.485Z,1.43
2018-10-19T08:17:21.448Z,1.90
2018-10-19T08:19:48.155Z,1.50
2018-10-19T08:22:14.100Z,1.80
2018-10-19T08:24:40.076Z,1.73
2018-10-19T08:27:06.029Z,1.60
2018-10-19T08:29:31.988Z,1.70
2018-10-19T08:31:58.708Z,1.70
2018-10-19T08:34:25.419Z,1.67
2018-10-19T08:36:51.412Z,1.60
2018-10-19T08:39:17.362Z,1.67
2018-10-19T08:41:43.462Z,1.80
2018-10-19T08:44:09.323Z,1.30
2018-10-19T08:46:35.316Z,1.50
2018-10-19T08:49:01.313Z,1.40
2018-10-19T08:51:27.244Z,1.73
2018-10-19T08:53:53.261Z,1.73
2018-10-19T08:56:19.207Z,1.93
2018-10-19T08:58:45.146Z,2.03
2018-10-19T09:01:11.112Z,1.40
2018-10-19T09:03:37.193Z,1.80
2018-10-19T09:06:03.155Z,1.97
2018-10-19T09:08:29.091Z,2.00
2018-10-19T09:10:55.095Z,1.80
2018-10-19T09:13:21.804Z,1.53
2018-10-19T09:15:47.765Z,1.70
2018-10-19T09:18:13.748Z,1.77
2018-10-19T09:20:39.696Z,2.27
2018-10-19T09:23:05.704Z,2.40
2018-10-19T09:25:31.667Z,1.80
2018-10-19T09:27:57.661Z,1.83
2018-10-19T09:30:23.609Z,1.93
2018-10-19T09:32:50.309Z,2.27
2018-10-19T09:35:16.343Z,1.83
2018-10-19T09:37:42.270Z,2.10
2018-10-19T09:40:09.051Z,2.00
2018-10-19T09:42:35.724Z,2.00
2018-10-19T09:45:01.733Z,1.87
2018-10-19T09:47:27.719Z,2.53
2018-10-19T09:49:54.450Z,2.27
2018-10-19T09:52:20.382Z,2.23
2018-10-19T09:54:46.354Z,2.70
2018-10-19T09:57:12.377Z,2.30
2018-10-19T09:59:38.349Z,2.70
2018-10-19T10:02:04.359Z,2.43
2018-10-19T10:04:31.061Z,2.80
2018-10-19T10:06:57.106Z,2.40
2018-10-19T10:09:23.035Z,2.83
2018-10-19T10:11:49.006Z,2.77
2018-10-19T10:14:14.959Z,2.90
2018-10-19T10:16:40.951Z,3.40
2018-10-19T10:19:06.960Z,3.13
2018-10-19T10:21:32.966Z,2.60
2018-10-19T10:23:59.717Z,3.07
2018-10-19T10:26:25.693Z,2.90
2018-10-19T10:28:51.685Z,3.00
2018-10-19T10:31:17.651Z,3.03
2018-10-19T10:33:43.648Z,3.00
2018-10-19T10:36:16.564Z,3.50
2018-10-19T10:38:42.610Z,2.87
2018-10-19T10:41:09.291Z,3.50
2018-10-19T10:43:35.315Z,3.27
2018-10-19T10:46:01.334Z,3.47
2018-10-19T10:48:27.268Z,3.40
2018-10-19T10:50:53.271Z,4.20
2018-10-19T10:53:19.221Z,4.00
2018-10-19T10:55:45.239Z,3.87
2018-10-19T10:58:11.271Z,4.17
2018-10-19T11:00:37.234Z,3.90
2018-10-19T11:03:03.191Z,4.00
2018-10-19T11:05:29.170Z,3.70
2018-10-19T11:07:55.878Z,3.87
2018-10-19T11:10:21.869Z,4.03
2018-10-19T11:12:47.841Z,3.77
2018-10-19T11:15:13.808Z,4.03
2018-10-19T11:17:39.794Z,3.43
2018-10-19T11:20:06.512Z,3.97
2018-10-19T11:22:32.515Z,3.23
2018-10-19T11:24:58.498Z,4.03
2018-10-19T11:27:25.229Z,4.10
2018-10-19T11:29:51.193Z,3.90
2018-10-19T11:32:17.198Z,3.67
2018-10-19T11:34:43.151Z,4.07
2018-10-19T11:37:09.273Z,3.37
2018-10-19T11:39:35.197Z,3.83
2018-10-19T11:42:01.171Z,3.40
2018-10-19T11:44:27.903Z,3.67
2018-10-19T11:46:53.917Z,4.23
2018-10-19T11:49:20.686Z,4.13
2018-10-19T11:51:46.627Z,4.30
2018-10-19T11:54:12.608Z,3.60
2018-10-19T11:56:38.555Z,3.97
2018-10-19T11:59:04.538Z,4.10
2018-10-19T12:01:30.538Z,3.63
2018-10-19T12:03:56.505Z,3.47
2018-10-19T12:06:23.244Z,3.90
2018-10-19T12:08:49.210Z,3.77
2018-10-19T12:11:15.223Z,3.50
2018-10-19T12:13:41.232Z,3.90
2018-10-19T12:16:08.066Z,3.97
2018-10-19T12:18:33.999Z,3.43
2018-10-19T12:21:00.037Z,3.23
2018-10-19T12:23:26.029Z,3.50
2018-10-19T12:25:52.784Z,3.30
2018-10-19T12:28:18.736Z,3.77
2018-10-19T12:30:44.730Z,3.63
2018-10-19T12:33:10.810Z,3.53
2018-10-19T12:35:36.826Z,3.50
2018-10-19T12:38:02.790Z,3.20
2018-10-19T12:40:29.502Z,3.30
2018-10-19T12:42:55.532Z,3.50
2018-10-19T12:45:21.539Z,3.83
2018-10-19T12:47:47.533Z,3.27
2018-10-19T12:50:13.505Z,3.30
2018-10-19T12:52:40.247Z,3.30
2018-10-19T12:55:07.022Z,3.60
2018-10-19T12:57:32.996Z,3.27
2018-10-19T12:59:59.726Z,3.40
2018-10-19T13:02:25.721Z,3.60
2018-10-19T13:04:51.697Z,3.40
2018-10-19T13:07:18.423Z,3.17
2018-10-19T13:09:44.424Z,3.20
2018-10-19T13:12:10.396Z,3.40
2018-10-19T13:14:37.148Z,3.40
2018-10-19T13:17:03.105Z,2.83
2018-10-19T13:19:29.113Z,2.57
2018-10-19T13:21:55.072Z,3.00
2018-10-19T13:24:21.062Z,3.10
2018-10-19T13:26:47.065Z,3.23
2018-10-19T13:29:13.175Z,3.17
2018-10-19T13:31:40.073Z,2.97
2018-10-19T13:34:06.082Z,2.77
2018-10-19T13:36:32.075Z,2.90
2018-10-19T13:38:58.098Z,3.00
2018-10-19T13:41:25.032Z,2.80
2018-10-19T13:43:51.097Z,2.70
2018-10-19T13:46:17.076Z,3.10
2018-10-19T13:48:43.825Z,3.17
2018-10-19T13:51:09.848Z,3.10
2018-10-19T13:53:35.824Z,3.23
2018-10-19T13:56:01.788Z,3.13
2018-10-19T13:58:28.618Z,3.30
2018-10-19T14:00:54.555Z,3.07
2018-10-19T14:03:21.265Z,2.77
2018-10-19T14:05:47.301Z,3.90
2018-10-19T14:08:13.233Z,2.90
2018-10-19T14:10:39.955Z,3.33
2018-10-19T14:13:05.954Z,3.37
2018-10-19T14:15:31.920Z,3.30
2018-10-19T14:17:58.654Z,3.50
2018-10-19T14:20:24.631Z,4.23
2018-10-19T14:22:50.601Z,3.37
2018-10-19T14:25:16.587Z,3.43
2018-10-19T14:27:42.571Z,3.77
2018-10-19T14:30:08.593Z,3.10
2018-10-19T14:32:35.315Z,3.30
2018-10-19T14:35:02.073Z,3.33
2018-10-19T14:37:28.061Z,3.53
2018-10-19T14:39:54.069Z,3.50
2018-10-19T14:42:20.018Z,3.90
2018-10-19T14:44:46.017Z,3.00
2018-10-19T14:47:12.066Z,3.20
2018-10-19T14:49:38.009Z,3.33
2018-10-19T14:52:04.748Z,3.37
2018-10-19T14:54:31.475Z,2.90
2018-10-19T14:56:58.230Z,2.63
2018-10-19T14:59:24.205Z,2.77
2018-10-19T15:01:50.204Z,3.20
2018-10-19T15:04:16.542Z,2.67
2018-10-19T15:06:42.544Z,2.83
2018-10-19T15:09:09.287Z,3.00
2018-10-19T15:11:35.436Z,2.67
2018-10-19T15:14:01.318Z,2.73
2018-10-19T15:16:28.048Z,3.40
2018-10-19T15:18:54.794Z,3.20
2018-10-19T15:21:21.495Z,2.87
2018-10-19T15:23:47.505Z,2.83
2018-10-19T15:26:13.475Z,3.03
2018-10-19T15:28:39.571Z,2.93
2018-10-19T15:31:05.553Z,3.40
2018-10-19T15:33:31.537Z,3.30
2018-10-19T15:35:57.532Z,3.67
2018-10-19T15:38:23.514Z,3.13
2018-10-19T15:40:49.473Z,2.63
2018-10-19T15:43:15.437Z,2.70
2018-10-19T15:45:42.170Z,2.67
2018-10-19T15:48:08.243Z,2.63
2018-10-19T15:50:34.172Z,2.53
2018-10-19T15:53:00.162Z,2.50
2018-10-19T15:55:26.915Z,2.80
2018-10-19T15:57:52.887Z,3.20
2018-10-19T16:00:19.138Z,2.63
2018-10-19T16:02:45.077Z,2.50
2018-10-19T16:05:11.091Z,2.30
2018-10-19T16:07:37.802Z,2.57
2018-10-19T16:10:03.812Z,2.63
2018-10-19T16:12:30.519Z,2.57
2018-10-19T16:14:56.544Z,2.70
2018-10-19T16:17:22.498Z,2.43
2018-10-19T16:19:48.485Z,2.97
2018-10-19T16:22:14.473Z,2.60
2018-10-19T16:24:41.210Z,2.60
2018-10-19T16:27:07.202Z,3.07
2018-10-19T16:29:33.961Z,2.67
2018-10-19T16:31:59.963Z,2.57
2018-10-19T16:34:26.000Z,2.73
2018-10-19T16:36:52.035Z,2.80
2018-10-19T16:39:18.034Z,2.97
2018-10-19T16:41:44.041Z,2.70
2018-10-19T16:44:10.022Z,3.30
2018-10-19T16:46:35.996Z,3.10
2018-10-19T16:49:01.985Z,3.33
2018-10-19T16:51:27.965Z,2.77
2018-10-19T16:53:53.954Z,3.07
2018-10-19T16:56:20.652Z,2.67
2018-10-19T16:58:47.378Z,3.00
2018-10-19T17:01:13.358Z,3.07
2018-10-19T17:03:39.390Z,3.23
2018-10-19T17:06:05.383Z,2.70
2018-10-19T17:08:31.401Z,2.90
2018-10-19T17:10:57.392Z,2.97
2018-10-19T17:13:23.399Z,2.90
2018-10-19T17:15:49.383Z,2.70
2018-10-19T17:18:15.371Z,2.77
2018-10-19T17:20:41.567Z,2.30
2018-10-19T17:23:07.558Z,1.97
2018-10-19T17:25:33.575Z,2.20
2018-10-19T17:27:59.545Z,2.07
2018-10-19T17:30:25.568Z,2.40
2018-10-19T17:32:51.625Z,2.50
2018-10-19T17:35:17.728Z,2.07
2018-10-19T17:37:43.585Z,2.03
2018-10-19T17:40:09.575Z,2.00
2018-10-19T17:42:36.302Z,2.40
2018-10-19T17:45:02.345Z,2.20
2018-10-19T17:47:29.105Z,1.83
2018-10-19T17:49:55.098Z,2.10
2018-10-19T17:52:21.066Z,1.87
2018-10-19T17:54:47.070Z,2.23
2018-10-19T17:57:13.825Z,2.43
2018-10-19T17:59:39.761Z,2.23
2018-10-19T18:02:05.769Z,2.53
2018-10-19T18:04:31.791Z,2.50
2018-10-19T18:06:58.527Z,2.20
2018-10-19T18:09:25.231Z,2.20
2018-10-19T18:11:51.258Z,2.50
2018-10-19T18:14:17.229Z,2.77
2018-10-19T18:16:43.328Z,2.87
2018-10-19T18:19:10.058Z,3.00
2018-10-19T18:21:36.089Z,2.60
2018-10-19T18:24:02.069Z,2.67
2018-10-19T18:26:28.037Z,2.60
2018-10-19T18:28:54.857Z,3.03
2018-10-19T18:31:20.768Z,2.40
2018-10-19T18:33:47.489Z,2.60
2018-10-19T18:36:13.486Z,2.57
2018-10-19T18:38:39.488Z,2.80
2018-10-19T18:41:05.517Z,2.70
2018-10-19T18:43:31.494Z,2.90
2018-10-19T18:45:57.459Z,3.57
2018-10-19T18:48:23.459Z,2.90
2018-10-19T18:50:49.527Z,2.93
2018-10-19T18:53:15.528Z,2.70
2018-10-19T18:55:41.446Z,2.60
2018-10-19T18:58:08.159Z,2.77
2018-10-19T19:00:34.187Z,2.70
2018-10-19T19:03:00.153Z,2.60
2018-10-19T19:05:26.172Z,3.50
2018-10-19T19:07:52.177Z,2.63
2018-10-19T19:10:18.172Z,3.10
2018-10-19T19:12:44.901Z,3.33
2018-10-19T19:15:10.905Z,3.43
2018-10-19T19:17:36.887Z,3.40
2018-10-19T19:20:02.946Z,3.80
2018-10-19T19:22:29.625Z,3.63
2018-10-19T19:24:55.633Z,5.03
2018-10-19T19:27:21.599Z,4.50
2018-10-19T19:29:48.454Z,4.37
2018-10-19T19:32:15.222Z,4.73
2018-10-19T19:34:41.865Z,4.07
2018-10-19T19:37:07.875Z,4.87
2018-10-19T19:39:33.942Z,5.77
2018-10-19T19:42:00.843Z,5.60
2018-10-19T19:44:26.806Z,5.30
2018-10-19T19:46:52.778Z,4.80
2018-10-19T19:49:18.825Z,4.30
2018-10-19T19:51:45.522Z,4.80
2018-10-19T19:54:12.239Z,4.83
2018-10-19T19:56:38.241Z,6.50
2018-10-19T19:59:04.301Z,5.40
2018-10-19T20:01:30.269Z,5.13
2018-10-19T20:03:56.225Z,5.17
2018-10-19T20:06:22.345Z,5.60
2018-10-19T20:08:48.214Z,5.83
2018-10-19T20:11:14.221Z,5.63
2018-10-19T20:13:40.196Z,4.83
2018-10-19T20:16:06.147Z,4.90
2018-10-19T20:18:32.131Z,4.73
2018-10-19T20:20:58.110Z,4.10
2018-10-19T20:23:24.850Z,4.53
2018-10-19T20:25:51.567Z,4.33
2018-10-19T20:28:17.554Z,4.20
2018-10-19T20:30:43.534Z,4.07
2018-10-19T20:33:10.342Z,4.33
2018-10-19T20:35:36.262Z,4.33
2018-10-19T20:38:02.326Z,4.33
2018-10-19T20:40:28.227Z,3.77
2018-10-19T20:42:54.210Z,4.63
2018-10-19T20:45:20.206Z,4.50
2018-10-19T20:47:46.912Z,4.17
2018-10-19T20:50:12.926Z,3.27
2018-10-19T20:52:38.907Z,3.33
2018-10-19T20:55:04.881Z,3.77
2018-10-19T20:57:30.877Z,3.63
2018-10-19T20:59:56.873Z,3.50
2018-10-19T21:02:22.902Z,3.40
2018-10-19T21:04:48.981Z,3.00
2018-10-19T21:07:15.749Z,3.23
2018-10-19T21:09:41.758Z,3.27
2018-10-19T21:12:09.722Z,3.70
2018-10-19T21:14:35.711Z,3.60
2018-10-19T21:17:01.773Z,3.20
2018-10-19T21:19:27.731Z,3.20
2018-10-19T21:21:54.434Z,3.20
2018-10-19T21:24:20.400Z,3.03
2018-10-19T21:26:46.393Z,2.93
2018-10-19T21:29:13.159Z,3.50
2018-10-19T21:31:39.101Z,3.30
2018-10-19T21:34:05.096Z,3.30
2018-10-19T21:36:31.145Z,3.10
2018-10-19T21:38:57.135Z,3.73
2018-10-19T21:41:23.103Z,3.23
2018-10-19T21:43:49.073Z,3.40
2018-10-19T21:46:15.045Z,3.60
2018-10-19T21:48:41.049Z,3.37
2018-10-19T21:51:06.989Z,3.60
2018-10-19T21:53:32.996Z,3.70
2018-10-19T21:55:58.965Z,3.77
2018-10-19T21:58:24.953Z,4.03
2018-10-19T22:00:51.678Z,3.47
2018-10-19T22:03:17.683Z,4.03
2018-10-19T22:05:43.670Z,4.53
2018-10-19T22:08:10.480Z,3.57
2018-10-19T22:10:36.448Z,3.70
2018-10-19T22:13:02.405Z,3.90
2018-10-19T22:15:28.401Z,3.63
2018-10-19T22:17:55.126Z,3.67
2018-10-19T22:20:21.169Z,3.67
2018-10-19T22:22:47.888Z,3.87
2018-10-19T22:25:13.912Z,3.70
2018-10-19T22:27:39.875Z,3.50
2018-10-19T22:30:05.925Z,4.17
2018-10-19T22:32:31.909Z,3.73
2018-10-19T22:34:58.679Z,3.43
2018-10-19T22:37:24.663Z,3.87
2018-10-19T22:39:51.357Z,3.50
2018-10-19T22:42:17.326Z,3.50
2018-10-19T22:44:44.045Z,3.20
2018-10-19T22:47:10.107Z,3.80
2018-10-19T22:49:36.797Z,3.70
2018-10-19T22:52:02.785Z,4.23
2018-10-19T22:54:28.803Z,3.40
2018-10-19T22:56:54.803Z,3.40
2018-10-19T22:59:21.520Z,3.47
2018-10-19T23:01:47.510Z,3.03
2018-10-19T23:04:13.495Z,3.37
2018-10-19T23:06:39.507Z,3.60
2018-10-19T23:09:06.208Z,3.37
2018-10-19T23:11:32.202Z,3.70
2018-10-19T23:13:58.160Z,3.50
2018-10-19T23:16:24.174Z,3.77
2018-10-19T23:18:50.173Z,3.50
2018-10-19T23:21:16.130Z,3.50
2018-10-19T23:23:42.877Z,3.50
2018-10-19T23:26:08.838Z,3.10
2018-10-19T23:28:35.567Z,3.43
2018-10-19T23:31:02.440Z,3.00
2018-10-19T23:33:28.289Z,3.73
2018-10-19T23:35:54.322Z,3.57
2018-10-19T23:38:20.321Z,3.83
2018-10-19T23:40:46.292Z,3.80
2018-10-19T23:43:12.271Z,3.37
2018-10-19T23:45:38.251Z,4.10
2018-10-19T23:48:04.268Z,4.10
2018-10-19T23:50:30.961Z,3.60
2018-10-19T23:52:56.944Z,3.67
2018-10-19T23:55:23.653Z,3.93
2018-10-19T23:57:49.676Z,4.00
